sensor_id;sensor_type;location;lat;lon;timestamp;temperature;humidity
77100;SHT31;66602;48.922;2.414;2023-12-07T00:02:19;4.46;91.74
77100;SHT31;66602;48.922;2.414;2023-12-07T00:04:45;4.45;91.73
77100;SHT31;66602;48.922;2.414;2023-12-07T00:07:11;4.43;91.87
77100;SHT31;66602;48.922;2.414;2023-12-07T00:09:36;4.48;91.80
77100;SHT31;66602;48.922;2.414;2023-12-07T00:12:02;4.50;91.62
77100;SHT31;66602;48.922;2.414;2023-12-07T00:14:28;4.49;91.66
77100;SHT31;66602;48.922;2.414;2023-12-07T00:16:54;4.48;91.73
77100;SHT31;66602;48.922;2.414;2023-12-07T00:19:19;4.52;91.96
77100;SHT31;66602;48.922;2.414;2023-12-07T00:21:45;4.53;91.49
77100;SHT31;66602;48.922;2.414;2023-12-07T00:24:11;4.50;91.09
77100;SHT31;66602;48.922;2.414;2023-12-07T00:26:36;4.45;91.15
77100;SHT31;66602;48.922;2.414;2023-12-07T00:29:03;4.32;91.23
77100;SHT31;66602;48.922;2.414;2023-12-07T00:31:29;4.12;91.34
77100;SHT31;66602;48.922;2.414;2023-12-07T00:33:54;4.04;91.96
77100;SHT31;66602;48.922;2.414;2023-12-07T00:36:21;3.94;92.36
77100;SHT31;66602;48.922;2.414;2023-12-07T00:38:47;3.95;92.50
77100;SHT31;66602;48.922;2.414;2023-12-07T00:41:13;3.84;92.48
77100;SHT31;66602;48.922;2.414;2023-12-07T00:43:39;3.71;93.00
77100;SHT31;66602;48.922;2.414;2023-12-07T00:46:07;3.62;93.40
77100;SHT31;66602;48.922;2.414;2023-12-07T00:48:33;3.60;93.89
77100;SHT31;66602;48.922;2.414;2023-12-07T00:50:58;3.62;93.99
77100;SHT31;66602;48.922;2.414;2023-12-07T00:53:24;3.69;93.76
77100;SHT31;66602;48.922;2.414;2023-12-07T00:55:50;3.78;93.44
77100;SHT31;66602;48.922;2.414;2023-12-07T00:58:15;3.74;93.29
77100;SHT31;66602;48.922;2.414;2023-12-07T01:00:41;3.75;93.22
77100;SHT31;66602;48.922;2.414;2023-12-07T01:03:07;3.78;93.23
77100;SHT31;66602;48.922;2.414;2023-12-07T01:05:32;3.81;93.11
77100;SHT31;66602;48.922;2.414;2023-12-07T01:07:58;3.84;93.05
77100;SHT31;66602;48.922;2.414;2023-12-07T01:10:24;3.88;92.84
77100;SHT31;66602;48.922;2.414;2023-12-07T01:12:50;3.90;92.72
77100;SHT31;66602;48.922;2.414;2023-12-07T01:15:15;3.93;92.72
77100;SHT31;66602;48.922;2.414;2023-12-07T01:17:42;3.90;92.85
77100;SHT31;66602;48.922;2.414;2023-12-07T01:20:08;3.99;92.58
77100;SHT31;66602;48.922;2.414;2023-12-07T01:22:39;3.99;92.32
77100;SHT31;66602;48.922;2.414;2023-12-07T01:25:06;4.06;92.22
77100;SHT31;66602;48.922;2.414;2023-12-07T01:27:32;4.05;92.08
77100;SHT31;66602;48.922;2.414;2023-12-07T01:29:57;4.08;92.09
77100;SHT31;66602;48.922;2.414;2023-12-07T01:32:23;4.08;91.96
77100;SHT31;66602;48.922;2.414;2023-12-07T01:34:49;4.06;92.07
77100;SHT31;66602;48.922;2.414;2023-12-07T01:37:15;4.05;92.20
77100;SHT31;66602;48.922;2.414;2023-12-07T01:39:44;4.04;92.23
77100;SHT31;66602;48.922;2.414;2023-12-07T01:42:10;4.06;92.44
77100;SHT31;66602;48.922;2.414;2023-12-07T01:44:38;4.11;92.26
77100;SHT31;66602;48.922;2.414;2023-12-07T01:47:06;4.12;92.16
77100;SHT31;66602;48.922;2.414;2023-12-07T01:49:34;4.08;92.15
77100;SHT31;66602;48.922;2.414;2023-12-07T01:52:01;4.02;92.29
77100;SHT31;66602;48.922;2.414;2023-12-07T01:54:28;3.99;92.32
77100;SHT31;66602;48.922;2.414;2023-12-07T01:56:54;3.93;92.45
77100;SHT31;66602;48.922;2.414;2023-12-07T01:59:22;3.91;92.93
77100;SHT31;66602;48.922;2.414;2023-12-07T02:01:48;3.83;93.22
77100;SHT31;66602;48.922;2.414;2023-12-07T02:04:14;3.73;93.14
77100;SHT31;66602;48.922;2.414;2023-12-07T02:06:41;3.84;93.51
77100;SHT31;66602;48.922;2.414;2023-12-07T02:09:07;3.84;93.57
77100;SHT31;66602;48.922;2.414;2023-12-07T02:11:34;3.83;93.60
77100;SHT31;66602;48.922;2.414;2023-12-07T02:14:01;3.81;93.43
77100;SHT31;66602;48.922;2.414;2023-12-07T02:16:31;3.88;93.20
77100;SHT31;66602;48.922;2.414;2023-12-07T02:22:08;3.91;93.05
77100;SHT31;66602;48.922;2.414;2023-12-07T02:24:37;3.98;93.00
77100;SHT31;66602;48.922;2.414;2023-12-07T02:27:04;3.97;92.76
77100;SHT31;66602;48.922;2.414;2023-12-07T02:29:30;3.97;92.73
77100;SHT31;66602;48.922;2.414;2023-12-07T02:31:55;3.98;92.76
77100;SHT31;66602;48.922;2.414;2023-12-07T02:34:23;3.99;92.94
77100;SHT31;66602;48.922;2.414;2023-12-07T02:36:49;4.01;92.75
77100;SHT31;66602;48.922;2.414;2023-12-07T02:39:17;4.01;92.69
77100;SHT31;66602;48.922;2.414;2023-12-07T02:41:43;4.02;92.36
77100;SHT31;66602;48.922;2.414;2023-12-07T02:44:10;4.05;92.07
77100;SHT31;66602;48.922;2.414;2023-12-07T02:46:37;4.02;92.24
77100;SHT31;66602;48.922;2.414;2023-12-07T02:49:03;4.02;91.99
77100;SHT31;66602;48.922;2.414;2023-12-07T02:51:28;3.99;91.98
77100;SHT31;66602;48.922;2.414;2023-12-07T02:53:54;4.04;91.76
77100;SHT31;66602;48.922;2.414;2023-12-07T02:56:20;4.02;91.59
77100;SHT31;66602;48.922;2.414;2023-12-07T02:58:45;3.97;91.80
77100;SHT31;66602;48.922;2.414;2023-12-07T03:01:11;3.91;92.07
77100;SHT31;66602;48.922;2.414;2023-12-07T03:03:36;3.87;92.10
77100;SHT31;66602;48.922;2.414;2023-12-07T03:06:04;3.90;92.10
77100;SHT31;66602;48.922;2.414;2023-12-07T03:08:30;3.90;92.04
77100;SHT31;66602;48.922;2.414;2023-12-07T03:10:55;3.91;92.11
77100;SHT31;66602;48.922;2.414;2023-12-07T03:13:21;3.94;92.15
77100;SHT31;66602;48.922;2.414;2023-12-07T03:15:46;3.90;92.13
77100;SHT31;66602;48.922;2.414;2023-12-07T03:18:12;3.90;92.17
77100;SHT31;66602;48.922;2.414;2023-12-07T03:20:38;3.83;92.30
77100;SHT31;66602;48.922;2.414;2023-12-07T03:23:03;3.77;92.52
77100;SHT31;66602;48.922;2.414;2023-12-07T03:25:29;3.67;92.68
77100;SHT31;66602;48.922;2.414;2023-12-07T03:27:54;3.71;93.08
77100;SHT31;66602;48.922;2.414;2023-12-07T03:30:20;3.78;92.93
77100;SHT31;66602;48.922;2.414;2023-12-07T03:32:45;3.73;92.84
77100;SHT31;66602;48.922;2.414;2023-12-07T03:35:11;3.70;93.04
77100;SHT31;66602;48.922;2.414;2023-12-07T03:37:36;3.75;93.11
77100;SHT31;66602;48.922;2.414;2023-12-07T03:40:02;3.77;93.00
77100;SHT31;66602;48.922;2.414;2023-12-07T03:42:29;3.77;93.09
77100;SHT31;66602;48.922;2.414;2023-12-07T03:44:55;3.81;92.87
77100;SHT31;66602;48.922;2.414;2023-12-07T03:47:21;3.78;92.84
77100;SHT31;66602;48.922;2.414;2023-12-07T03:49:46;3.81;92.87
77100;SHT31;66602;48.922;2.414;2023-12-07T03:52:12;3.80;92.87
77100;SHT31;66602;48.922;2.414;2023-12-07T03:54:37;3.74;93.00
77100;SHT31;66602;48.922;2.414;2023-12-07T03:57:18;3.75;92.88
77100;SHT31;66602;48.922;2.414;2023-12-07T03:59:43;3.77;92.88
77100;SHT31;66602;48.922;2.414;2023-12-07T04:02:11;3.77;92.96
77100;SHT31;66602;48.922;2.414;2023-12-07T04:04:36;3.77;92.88
77100;SHT31;66602;48.922;2.414;2023-12-07T04:07:03;3.78;92.86
77100;SHT31;66602;48.922;2.414;2023-12-07T04:09:29;3.75;92.87
77100;SHT31;66602;48.922;2.414;2023-12-07T04:11:56;3.74;92.92
77100;SHT31;66602;48.922;2.414;2023-12-07T04:14:21;3.74;93.04
77100;SHT31;66602;48.922;2.414;2023-12-07T04:16:47;3.74;93.02
77100;SHT31;66602;48.922;2.414;2023-12-07T04:19:13;3.73;93.17
77100;SHT31;66602;48.922;2.414;2023-12-07T04:21:38;3.73;93.24
77100;SHT31;66602;48.922;2.414;2023-12-07T04:24:04;3.75;93.30
77100;SHT31;66602;48.922;2.414;2023-12-07T04:26:29;3.78;93.18
77100;SHT31;66602;48.922;2.414;2023-12-07T04:28:55;3.84;93.06
77100;SHT31;66602;48.922;2.414;2023-12-07T04:31:20;3.94;92.96
77100;SHT31;66602;48.922;2.414;2023-12-07T04:33:46;3.95;92.64
77100;SHT31;66602;48.922;2.414;2023-12-07T04:36:12;3.95;92.60
77100;SHT31;66602;48.922;2.414;2023-12-07T04:38:37;3.98;92.31
77100;SHT31;66602;48.922;2.414;2023-12-07T04:41:03;4.01;92.36
77100;SHT31;66602;48.922;2.414;2023-12-07T04:43:29;4.01;92.12
77100;SHT31;66602;48.922;2.414;2023-12-07T04:45:55;3.99;92.15
77100;SHT31;66602;48.922;2.414;2023-12-07T04:48:20;3.97;92.11
77100;SHT31;66602;48.922;2.414;2023-12-07T04:50:46;3.93;92.30
77100;SHT31;66602;48.922;2.414;2023-12-07T04:53:11;3.97;92.12
77100;SHT31;66602;48.922;2.414;2023-12-07T04:55:37;3.95;92.00
77100;SHT31;66602;48.922;2.414;2023-12-07T04:58:03;3.88;92.16
77100;SHT31;66602;48.922;2.414;2023-12-07T05:00:28;3.94;92.17
77100;SHT31;66602;48.922;2.414;2023-12-07T05:02:55;3.91;91.79
77100;SHT31;66602;48.922;2.414;2023-12-07T05:05:21;3.91;91.80
77100;SHT31;66602;48.922;2.414;2023-12-07T05:07:47;3.91;91.64
77100;SHT31;66602;48.922;2.414;2023-12-07T05:10:13;3.91;91.66
77100;SHT31;66602;48.922;2.414;2023-12-07T05:12:39;3.85;91.73
77100;SHT31;66602;48.922;2.414;2023-12-07T05:15:05;3.87;91.47
77100;SHT31;66602;48.922;2.414;2023-12-07T05:17:31;3.90;91.36
77100;SHT31;66602;48.922;2.414;2023-12-07T05:19:58;3.88;91.61
77100;SHT31;66602;48.922;2.414;2023-12-07T05:22:23;3.93;91.58
77100;SHT31;66602;48.922;2.414;2023-12-07T05:24:51;3.88;91.21
77100;SHT31;66602;48.922;2.414;2023-12-07T05:27:17;3.87;91.38
77100;SHT31;66602;48.922;2.414;2023-12-07T05:29:42;3.81;91.73
77100;SHT31;66602;48.922;2.414;2023-12-07T05:32:09;3.78;91.87
77100;SHT31;66602;48.922;2.414;2023-12-07T05:34:34;3.81;91.81
77100;SHT31;66602;48.922;2.414;2023-12-07T05:37:01;3.87;91.54
77100;SHT31;66602;48.922;2.414;2023-12-07T05:39:26;3.87;91.39
77100;SHT31;66602;48.922;2.414;2023-12-07T05:41:52;3.85;91.35
77100;SHT31;66602;48.922;2.414;2023-12-07T05:44:18;3.85;91.23
77100;SHT31;66602;48.922;2.414;2023-12-07T05:46:47;3.85;91.40
77100;SHT31;66602;48.922;2.414;2023-12-07T05:49:12;3.91;91.22
77100;SHT31;66602;48.922;2.414;2023-12-07T05:51:38;3.91;91.02
77100;SHT31;66602;48.922;2.414;2023-12-07T05:54:04;3.98;90.94
77100;SHT31;66602;48.922;2.414;2023-12-07T05:56:31;4.02;90.83
77100;SHT31;66602;48.922;2.414;2023-12-07T05:58:56;3.98;90.86
77100;SHT31;66602;48.922;2.414;2023-12-07T06:01:22;4.01;90.96
77100;SHT31;66602;48.922;2.414;2023-12-07T06:03:48;4.04;90.91
77100;SHT31;66602;48.922;2.414;2023-12-07T06:06:13;4.05;90.89
77100;SHT31;66602;48.922;2.414;2023-12-07T06:08:39;4.12;90.48
77100;SHT31;66602;48.922;2.414;2023-12-07T06:11:05;4.12;90.04
77100;SHT31;66602;48.922;2.414;2023-12-07T06:13:31;4.12;89.88
77100;SHT31;66602;48.922;2.414;2023-12-07T06:15:57;4.12;90.01
77100;SHT31;66602;48.922;2.414;2023-12-07T06:18:23;4.09;89.97
77100;SHT31;66602;48.922;2.414;2023-12-07T06:20:50;4.11;89.94
77100;SHT31;66602;48.922;2.414;2023-12-07T06:23:16;4.09;89.63
77100;SHT31;66602;48.922;2.414;2023-12-07T06:25:41;4.09;89.78
77100;SHT31;66602;48.922;2.414;2023-12-07T06:28:07;4.05;89.97
77100;SHT31;66602;48.922;2.414;2023-12-07T06:30:33;4.08;90.16
77100;SHT31;66602;48.922;2.414;2023-12-07T06:32:58;4.02;90.27
77100;SHT31;66602;48.922;2.414;2023-12-07T06:35:24;4.05;90.05
77100;SHT31;66602;48.922;2.414;2023-12-07T06:37:49;4.08;89.90
77100;SHT31;66602;48.922;2.414;2023-12-07T06:40:15;4.09;89.82
77100;SHT31;66602;48.922;2.414;2023-12-07T06:42:41;4.14;89.66
77100;SHT31;66602;48.922;2.414;2023-12-07T06:45:07;4.18;89.22
77100;SHT31;66602;48.922;2.414;2023-12-07T06:47:37;4.24;89.01
77100;SHT31;66602;48.922;2.414;2023-12-07T06:50:05;4.31;88.80
77100;SHT31;66602;48.922;2.414;2023-12-07T06:52:33;4.34;88.95
77100;SHT31;66602;48.922;2.414;2023-12-07T06:55:00;4.39;88.81
77100;SHT31;66602;48.922;2.414;2023-12-07T06:57:26;4.39;88.69
77100;SHT31;66602;48.922;2.414;2023-12-07T06:59:51;4.34;88.79
77100;SHT31;66602;48.922;2.414;2023-12-07T07:02:18;4.34;88.83
77100;SHT31;66602;48.922;2.414;2023-12-07T07:04:44;4.34;89.04
77100;SHT31;66602;48.922;2.414;2023-12-07T07:07:12;4.38;88.92
77100;SHT31;66602;48.922;2.414;2023-12-07T07:09:38;4.41;88.57
77100;SHT31;66602;48.922;2.414;2023-12-07T07:12:03;4.43;88.33
77100;SHT31;66602;48.922;2.414;2023-12-07T07:14:30;4.42;88.48
77100;SHT31;66602;48.922;2.414;2023-12-07T07:16:55;4.38;88.73
77100;SHT31;66602;48.922;2.414;2023-12-07T07:19:21;4.43;88.37
77100;SHT31;66602;48.922;2.414;2023-12-07T07:21:47;4.46;88.04
77100;SHT31;66602;48.922;2.414;2023-12-07T07:24:12;4.49;88.05
77100;SHT31;66602;48.922;2.414;2023-12-07T07:26:38;4.48;87.99
77100;SHT31;66602;48.922;2.414;2023-12-07T07:29:05;4.50;87.74
77100;SHT31;66602;48.922;2.414;2023-12-07T07:31:31;4.48;87.87
77100;SHT31;66602;48.922;2.414;2023-12-07T07:33:57;4.46;87.84
77100;SHT31;66602;48.922;2.414;2023-12-07T07:36:23;4.50;87.93
77100;SHT31;66602;48.922;2.414;2023-12-07T07:38:48;4.55;87.61
77100;SHT31;66602;48.922;2.414;2023-12-07T07:41:14;4.56;87.51
77100;SHT31;66602;48.922;2.414;2023-12-07T07:43:39;4.56;87.70
77100;SHT31;66602;48.922;2.414;2023-12-07T07:46:05;4.56;87.45
77100;SHT31;66602;48.922;2.414;2023-12-07T07:48:31;4.60;86.87
77100;SHT31;66602;48.922;2.414;2023-12-07T07:50:57;4.60;87.12
77100;SHT31;66602;48.922;2.414;2023-12-07T07:53:24;4.56;87.00
77100;SHT31;66602;48.922;2.414;2023-12-07T07:55:49;4.59;86.65
77100;SHT31;66602;48.922;2.414;2023-12-07T07:58:15;4.62;86.54
77100;SHT31;66602;48.922;2.414;2023-12-07T08:00:41;4.57;86.68
77100;SHT31;66602;48.922;2.414;2023-12-07T08:03:07;4.52;86.87
77100;SHT31;66602;48.922;2.414;2023-12-07T08:05:33;4.55;86.66
77100;SHT31;66602;48.922;2.414;2023-12-07T08:07:58;4.56;86.71
77100;SHT31;66602;48.922;2.414;2023-12-07T08:10:24;4.57;86.59
77100;SHT31;66602;48.922;2.414;2023-12-07T08:12:49;4.60;86.60
77100;SHT31;66602;48.922;2.414;2023-12-07T08:15:15;4.62;86.15
77100;SHT31;66602;48.922;2.414;2023-12-07T08:17:41;4.59;86.46
77100;SHT31;66602;48.922;2.414;2023-12-07T08:20:10;4.59;86.36
77100;SHT31;66602;48.922;2.414;2023-12-07T08:22:36;4.56;86.55
77100;SHT31;66602;48.922;2.414;2023-12-07T08:25:03;4.56;86.50
77100;SHT31;66602;48.922;2.414;2023-12-07T08:27:33;4.57;86.37
77100;SHT31;66602;48.922;2.414;2023-12-07T08:29:59;4.63;86.08
77100;SHT31;66602;48.922;2.414;2023-12-07T08:32:25;4.65;86.07
77100;SHT31;66602;48.922;2.414;2023-12-07T08:34:51;4.66;86.42
77100;SHT31;66602;48.922;2.414;2023-12-07T08:37:17;4.66;86.18
77100;SHT31;66602;48.922;2.414;2023-12-07T08:39:43;4.70;86.01
77100;SHT31;66602;48.922;2.414;2023-12-07T08:42:08;4.72;85.52
77100;SHT31;66602;48.922;2.414;2023-12-07T08:44:34;4.73;85.54
77100;SHT31;66602;48.922;2.414;2023-12-07T08:46:59;4.73;85.35
77100;SHT31;66602;48.922;2.414;2023-12-07T08:49:25;4.74;85.18
77100;SHT31;66602;48.922;2.414;2023-12-07T08:51:51;4.76;84.91
77100;SHT31;66602;48.922;2.414;2023-12-07T08:54:18;4.80;84.76
77100;SHT31;66602;48.922;2.414;2023-12-07T08:56:46;4.86;84.05
77100;SHT31;66602;48.922;2.414;2023-12-07T08:59:11;4.94;84.09
77100;SHT31;66602;48.922;2.414;2023-12-07T09:01:36;4.96;83.88
77100;SHT31;66602;48.922;2.414;2023-12-07T09:04:02;5.01;83.44
77100;SHT31;66602;48.922;2.414;2023-12-07T09:06:28;5.07;83.38
77100;SHT31;66602;48.922;2.414;2023-12-07T09:08:54;5.08;83.21
77100;SHT31;66602;48.922;2.414;2023-12-07T09:11:20;5.13;83.50
77100;SHT31;66602;48.922;2.414;2023-12-07T09:13:46;5.23;83.12
77100;SHT31;66602;48.922;2.414;2023-12-07T09:16:11;5.24;82.66
77100;SHT31;66602;48.922;2.414;2023-12-07T09:18:37;5.28;82.13
77100;SHT31;66602;48.922;2.414;2023-12-07T09:21:03;5.42;81.98
77100;SHT31;66602;48.922;2.414;2023-12-07T09:23:29;5.45;81.46
77100;SHT31;66602;48.922;2.414;2023-12-07T09:25:55;5.55;81.17
77100;SHT31;66602;48.922;2.414;2023-12-07T09:28:21;5.66;80.98
77100;SHT31;66602;48.922;2.414;2023-12-07T09:30:47;5.75;79.99
77100;SHT31;66602;48.922;2.414;2023-12-07T09:33:13;5.89;80.07
77100;SHT31;66602;48.922;2.414;2023-12-07T09:35:39;5.96;79.73
77100;SHT31;66602;48.922;2.414;2023-12-07T09:38:04;6.04;79.28
77100;SHT31;66602;48.922;2.414;2023-12-07T09:40:30;6.07;79.26
77100;SHT31;66602;48.922;2.414;2023-12-07T09:42:56;6.11;78.99
77100;SHT31;66602;48.922;2.414;2023-12-07T09:45:21;6.13;78.50
77100;SHT31;66602;48.922;2.414;2023-12-07T09:47:51;6.20;78.26
77100;SHT31;66602;48.922;2.414;2023-12-07T09:50:19;6.24;77.86
77100;SHT31;66602;48.922;2.414;2023-12-07T09:52:53;6.30;78.02
77100;SHT31;66602;48.922;2.414;2023-12-07T09:55:22;6.28;77.08
77100;SHT31;66602;48.922;2.414;2023-12-07T09:57:51;6.35;77.33
77100;SHT31;66602;48.922;2.414;2023-12-07T10:00:20;6.34;77.98
77100;SHT31;66602;48.922;2.414;2023-12-07T10:02:46;6.31;77.57
77100;SHT31;66602;48.922;2.414;2023-12-07T10:05:13;6.35;77.36
77100;SHT31;66602;48.922;2.414;2023-12-07T10:07:43;6.42;77.83
77100;SHT31;66602;48.922;2.414;2023-12-07T10:10:10;6.38;76.49
77100;SHT31;66602;48.922;2.414;2023-12-07T10:15:18;6.44;76.57
77100;SHT31;66602;48.922;2.414;2023-12-07T10:17:48;6.58;76.28
77100;SHT31;66602;48.922;2.414;2023-12-07T10:20:21;6.68;76.89
77100;SHT31;66602;48.922;2.414;2023-12-07T10:22:49;6.68;75.83
77100;SHT31;66602;48.922;2.414;2023-12-07T10:25:26;6.71;76.64
77100;SHT31;66602;48.922;2.414;2023-12-07T10:27:51;6.67;75.70
77100;SHT31;66602;48.922;2.414;2023-12-07T10:30:17;6.67;76.11
77100;SHT31;66602;48.922;2.414;2023-12-07T10:32:50;6.63;75.98
77100;SHT31;66602;48.922;2.414;2023-12-07T10:35:17;6.61;75.46
77100;SHT31;66602;48.922;2.414;2023-12-07T10:37:43;6.59;75.72
77100;SHT31;66602;48.922;2.414;2023-12-07T10:40:09;6.47;75.44
77100;SHT31;66602;48.922;2.414;2023-12-07T10:42:36;6.48;75.44
77100;SHT31;66602;48.922;2.414;2023-12-07T10:45:06;6.45;75.81
77100;SHT31;66602;48.922;2.414;2023-12-07T10:47:36;6.44;75.62
77100;SHT31;66602;48.922;2.414;2023-12-07T10:50:06;6.44;75.56
77100;SHT31;66602;48.922;2.414;2023-12-07T10:52:36;6.42;75.51
77100;SHT31;66602;48.922;2.414;2023-12-07T10:55:05;6.40;76.10
77100;SHT31;66602;48.922;2.414;2023-12-07T10:57:33;6.38;75.91
77100;SHT31;66602;48.922;2.414;2023-12-07T11:00:01;6.27;76.29
77100;SHT31;66602;48.922;2.414;2023-12-07T11:02:32;6.34;76.16
77100;SHT31;66602;48.922;2.414;2023-12-07T11:04:58;6.33;76.56
77100;SHT31;66602;48.922;2.414;2023-12-07T11:07:29;6.35;75.71
77100;SHT31;66602;48.922;2.414;2023-12-07T11:10:11;6.34;75.64
77100;SHT31;66602;48.922;2.414;2023-12-07T11:12:47;6.42;76.37
77100;SHT31;66602;48.922;2.414;2023-12-07T11:15:15;6.40;75.68
77100;SHT31;66602;48.922;2.414;2023-12-07T11:17:52;6.45;76.12
77100;SHT31;66602;48.922;2.414;2023-12-07T11:20:22;6.49;75.86
77100;SHT31;66602;48.922;2.414;2023-12-07T11:22:56;6.58;75.57
77100;SHT31;66602;48.922;2.414;2023-12-07T11:25:22;6.63;75.19
77100;SHT31;66602;48.922;2.414;2023-12-07T11:27:47;6.61;75.70
77100;SHT31;66602;48.922;2.414;2023-12-07T11:30:14;6.52;75.18
77100;SHT31;66602;48.922;2.414;2023-12-07T11:32:40;6.55;75.98
77100;SHT31;66602;48.922;2.414;2023-12-07T11:35:06;6.59;75.94
77100;SHT31;66602;48.922;2.414;2023-12-07T11:38:00;6.52;75.20
77100;SHT31;66602;48.922;2.414;2023-12-07T11:40:30;6.55;75.85
77100;SHT31;66602;48.922;2.414;2023-12-07T11:42:56;6.52;75.45
77100;SHT31;66602;48.922;2.414;2023-12-07T11:45:41;6.52;75.75
77100;SHT31;66602;48.922;2.414;2023-12-07T11:48:14;6.51;75.09
77100;SHT31;66602;48.922;2.414;2023-12-07T11:51:02;6.56;75.57
77100;SHT31;66602;48.922;2.414;2023-12-07T11:53:31;6.58;75.01
77100;SHT31;66602;48.922;2.414;2023-12-07T11:56:10;6.58;75.44
77100;SHT31;66602;48.922;2.414;2023-12-07T11:58:37;6.67;75.27
77100;SHT31;66602;48.922;2.414;2023-12-07T12:01:03;6.67;75.35
77100;SHT31;66602;48.922;2.414;2023-12-07T12:03:31;6.64;75.05
77100;SHT31;66602;48.922;2.414;2023-12-07T12:05:59;6.59;74.68
77100;SHT31;66602;48.922;2.414;2023-12-07T12:08:25;6.58;75.61
77100;SHT31;66602;48.922;2.414;2023-12-07T12:10:51;6.58;75.16
77100;SHT31;66602;48.922;2.414;2023-12-07T12:13:19;6.54;75.39
77100;SHT31;66602;48.922;2.414;2023-12-07T12:15:45;6.55;75.56
77100;SHT31;66602;48.922;2.414;2023-12-07T12:18:14;6.48;75.75
77100;SHT31;66602;48.922;2.414;2023-12-07T12:20:39;6.47;75.30
77100;SHT31;66602;48.922;2.414;2023-12-07T12:23:05;6.40;76.19
77100;SHT31;66602;48.922;2.414;2023-12-07T12:25:31;6.37;75.90
77100;SHT31;66602;48.922;2.414;2023-12-07T12:28:04;6.33;75.80
77100;SHT31;66602;48.922;2.414;2023-12-07T12:30:31;6.30;76.25
77100;SHT31;66602;48.922;2.414;2023-12-07T12:32:57;6.24;75.97
77100;SHT31;66602;48.922;2.414;2023-12-07T12:35:25;6.24;75.84
77100;SHT31;66602;48.922;2.414;2023-12-07T12:37:50;6.24;75.75
77100;SHT31;66602;48.922;2.414;2023-12-07T12:40:20;6.18;76.18
77100;SHT31;66602;48.922;2.414;2023-12-07T12:42:47;6.17;76.20
77100;SHT31;66602;48.922;2.414;2023-12-07T12:45:17;6.18;76.04
77100;SHT31;66602;48.922;2.414;2023-12-07T12:47:46;6.24;76.75
77100;SHT31;66602;48.922;2.414;2023-12-07T12:50:32;6.33;76.07
77100;SHT31;66602;48.922;2.414;2023-12-07T12:52:58;6.45;75.98
77100;SHT31;66602;48.922;2.414;2023-12-07T12:55:28;6.48;76.08
77100;SHT31;66602;48.922;2.414;2023-12-07T12:57:55;6.55;75.90
77100;SHT31;66602;48.922;2.414;2023-12-07T13:00:22;6.59;75.42
77100;SHT31;66602;48.922;2.414;2023-12-07T13:02:47;6.68;75.74
77100;SHT31;66602;48.922;2.414;2023-12-07T13:05:13;6.67;74.99
77100;SHT31;66602;48.922;2.414;2023-12-07T13:07:38;6.75;75.12
77100;SHT31;66602;48.922;2.414;2023-12-07T13:10:04;6.79;75.15
77100;SHT31;66602;48.922;2.414;2023-12-07T13:12:30;6.78;75.18
77100;SHT31;66602;48.922;2.414;2023-12-07T13:14:59;6.67;75.36
77100;SHT31;66602;48.922;2.414;2023-12-07T13:17:25;6.64;76.30
77100;SHT31;66602;48.922;2.414;2023-12-07T13:19:51;6.61;75.57
77100;SHT31;66602;48.922;2.414;2023-12-07T13:22:17;6.68;75.94
77100;SHT31;66602;48.922;2.414;2023-12-07T13:24:45;6.64;75.55
77100;SHT31;66602;48.922;2.414;2023-12-07T13:27:10;6.75;75.96
77100;SHT31;66602;48.922;2.414;2023-12-07T13:29:36;6.81;75.51
77100;SHT31;66602;48.922;2.414;2023-12-07T13:32:01;6.91;75.40
77100;SHT31;66602;48.922;2.414;2023-12-07T13:34:27;6.89;75.30
77100;SHT31;66602;48.922;2.414;2023-12-07T13:36:53;6.95;76.13
77100;SHT31;66602;48.922;2.414;2023-12-07T13:39:19;7.03;76.17
77100;SHT31;66602;48.922;2.414;2023-12-07T13:41:47;7.00;75.64
77100;SHT31;66602;48.922;2.414;2023-12-07T13:44:17;6.88;76.31
77100;SHT31;66602;48.922;2.414;2023-12-07T13:46:44;6.84;76.21
77100;SHT31;66602;48.922;2.414;2023-12-07T13:49:10;6.84;75.84
77100;SHT31;66602;48.922;2.414;2023-12-07T13:51:37;6.82;76.33
77100;SHT31;66602;48.922;2.414;2023-12-07T13:54:03;6.78;76.08
77100;SHT31;66602;48.922;2.414;2023-12-07T13:56:28;6.72;76.43
77100;SHT31;66602;48.922;2.414;2023-12-07T13:58:54;6.68;76.78
77100;SHT31;66602;48.922;2.414;2023-12-07T14:01:19;6.55;79.11
77100;SHT31;66602;48.922;2.414;2023-12-07T14:03:46;6.38;79.63
77100;SHT31;66602;48.922;2.414;2023-12-07T14:06:11;6.14;80.57
77100;SHT31;66602;48.922;2.414;2023-12-07T14:08:38;6.07;80.96
77100;SHT31;66602;48.922;2.414;2023-12-07T14:11:04;5.97;81.48
77100;SHT31;66602;48.922;2.414;2023-12-07T14:13:30;5.87;82.15
77100;SHT31;66602;48.922;2.414;2023-12-07T14:15:55;5.79;82.54
77100;SHT31;66602;48.922;2.414;2023-12-07T14:18:21;5.65;84.12
77100;SHT31;66602;48.922;2.414;2023-12-07T14:20:46;5.62;82.99
77100;SHT31;66602;48.922;2.414;2023-12-07T14:23:12;5.59;83.84
77100;SHT31;66602;48.922;2.414;2023-12-07T14:25:37;5.59;82.88
77100;SHT31;66602;48.922;2.414;2023-12-07T14:28:05;5.54;84.14
77100;SHT31;66602;48.922;2.414;2023-12-07T14:30:30;5.48;84.67
77100;SHT31;66602;48.922;2.414;2023-12-07T14:32:56;5.51;84.68
77100;SHT31;66602;48.922;2.414;2023-12-07T14:35:22;5.56;83.68
77100;SHT31;66602;48.922;2.414;2023-12-07T14:37:47;5.62;83.49
77100;SHT31;66602;48.922;2.414;2023-12-07T14:40:14;5.55;84.21
77100;SHT31;66602;48.922;2.414;2023-12-07T14:42:42;5.58;83.97
77100;SHT31;66602;48.922;2.414;2023-12-07T14:45:08;5.63;83.52
77100;SHT31;66602;48.922;2.414;2023-12-07T14:47:35;5.65;84.17
77100;SHT31;66602;48.922;2.414;2023-12-07T14:50:00;5.69;83.69
77100;SHT31;66602;48.922;2.414;2023-12-07T14:52:26;5.70;83.32
77100;SHT31;66602;48.922;2.414;2023-12-07T14:54:51;5.73;83.75
77100;SHT31;66602;48.922;2.414;2023-12-07T14:57:18;5.73;83.61
77100;SHT31;66602;48.922;2.414;2023-12-07T14:59:44;5.75;83.33
77100;SHT31;66602;48.922;2.414;2023-12-07T15:02:09;5.85;82.52
77100;SHT31;66602;48.922;2.414;2023-12-07T15:04:37;5.90;81.66
77100;SHT31;66602;48.922;2.414;2023-12-07T15:07:03;5.85;82.07
77100;SHT31;66602;48.922;2.414;2023-12-07T15:09:28;5.79;83.12
77100;SHT31;66602;48.922;2.414;2023-12-07T15:11:55;5.80;81.95
77100;SHT31;66602;48.922;2.414;2023-12-07T15:14:21;5.82;81.85
77100;SHT31;66602;48.922;2.414;2023-12-07T15:16:46;5.79;82.29
77100;SHT31;66602;48.922;2.414;2023-12-07T15:19:13;5.79;82.01
77100;SHT31;66602;48.922;2.414;2023-12-07T15:21:38;5.77;83.01
77100;SHT31;66602;48.922;2.414;2023-12-07T15:24:04;5.75;83.23
77100;SHT31;66602;48.922;2.414;2023-12-07T15:26:30;5.76;82.24
77100;SHT31;66602;48.922;2.414;2023-12-07T15:28:56;5.73;82.11
77100;SHT31;66602;48.922;2.414;2023-12-07T15:31:21;5.72;82.37
77100;SHT31;66602;48.922;2.414;2023-12-07T15:33:47;5.73;81.91
77100;SHT31;66602;48.922;2.414;2023-12-07T15:36:12;5.75;81.88
77100;SHT31;66602;48.922;2.414;2023-12-07T15:38:38;5.67;82.42
77100;SHT31;66602;48.922;2.414;2023-12-07T15:41:06;5.65;82.69
77100;SHT31;66602;48.922;2.414;2023-12-07T15:43:31;5.67;82.59
77100;SHT31;66602;48.922;2.414;2023-12-07T15:45:58;5.70;81.72
77100;SHT31;66602;48.922;2.414;2023-12-07T15:48:24;5.69;81.51